createdAt,value
2018-06-20T00:00:22.321Z,10.87
2018-06-20T00:02:53.057Z,11.03
2018-06-20T00:05:24.485Z,6.70
2018-06-20T00:07:55.542Z,7.17
2018-06-20T00:10:26.121Z,9.17
2018-06-20T00:12:57.502Z,9.37
2018-06-20T00:15:28.608Z,10.43
2018-06-20T00:17:59.674Z,7.50
2018-06-20T00:20:31.606Z,10.93
2018-06-20T00:23:02.620Z,8.50
2018-06-20T00:25:33.638Z,7.30
2018-06-20T00:28:04.651Z,11.23
2018-06-20T00:30:35.743Z,9.47
2018-06-20T00:33:06.883Z,7.50
2018-06-20T00:35:37.875Z,8.83
2018-06-20T00:38:08.967Z,11.60
2018-06-20T00:40:40.107Z,8.23
2018-06-20T00:43:11.122Z,12.20
2018-06-20T00:45:42.850Z,8.87
2018-06-20T00:48:13.878Z,8.80
2018-06-20T00:50:44.889Z,7.73
2018-06-20T00:53:15.933Z,10.00
2018-06-20T00:55:57.607Z,14.47
2018-06-20T00:58:28.581Z,8.57
2018-06-20T01:00:59.962Z,6.13
2018-06-20T01:03:30.933Z,8.93
2018-06-20T01:06:02.028Z,9.63
2018-06-20T01:08:32.994Z,10.80
2018-06-20T01:11:03.968Z,6.87
2018-06-20T01:13:34.948Z,8.00
2018-06-20T01:16:06.032Z,5.80
2018-06-20T01:18:38.098Z,8.33
2018-06-20T01:21:09.886Z,6.10
2018-06-20T01:23:40.934Z,9.40
2018-06-20T01:26:11.987Z,14.17
2018-06-20T01:28:43.045Z,11.23
2018-06-20T01:31:14.314Z,6.70
2018-06-20T01:33:44.984Z,10.33
2018-06-20T01:36:16.484Z,12.13
2018-06-20T01:38:48.129Z,12.67
2018-06-20T01:41:19.577Z,15.40
2018-06-20T01:43:51.086Z,9.53
2018-06-20T01:46:21.541Z,11.07
2018-06-20T01:48:52.345Z,8.57
2018-06-20T01:51:23.427Z,9.73
2018-06-20T01:53:54.483Z,7.30
2018-06-20T01:56:25.527Z,8.43
2018-06-20T01:58:56.507Z,11.77
2018-06-20T02:01:27.830Z,9.20
2018-06-20T02:04:01.904Z,14.43
2018-06-20T02:06:33.020Z,9.70
2018-06-20T02:09:07.821Z,11.00
2018-06-20T02:11:38.843Z,10.83
2018-06-20T02:14:09.856Z,11.37
2018-06-20T02:16:40.818Z,12.40
2018-06-20T02:19:12.718Z,12.73
2018-06-20T02:21:43.212Z,12.60
2018-06-20T02:24:13.814Z,11.07
2018-06-20T02:26:44.692Z,9.50
2018-06-20T02:29:16.226Z,10.10
2018-06-20T02:31:47.161Z,11.47
2018-06-20T02:34:18.010Z,12.30
2018-06-20T02:36:49.175Z,9.20
2018-06-20T02:39:20.088Z,12.30
2018-06-20T02:41:51.112Z,10.13
2018-06-20T02:44:22.690Z,10.93
2018-06-20T02:46:54.142Z,13.40
2018-06-20T02:49:25.224Z,12.67
2018-06-20T02:51:56.816Z,6.63
2018-06-20T02:54:28.825Z,10.77
2018-06-20T02:57:00.285Z,13.57
2018-06-20T02:59:31.613Z,14.27
2018-06-20T03:02:02.303Z,14.90
2018-06-20T03:04:33.164Z,8.93
2018-06-20T03:07:04.210Z,13.63
2018-06-20T03:09:35.240Z,10.90
2018-06-20T03:12:06.245Z,13.13
2018-06-20T03:14:37.164Z,13.37
2018-06-20T03:17:08.256Z,11.87
2018-06-20T03:19:39.340Z,11.50
2018-06-20T03:22:10.333Z,10.87
2018-06-20T03:24:41.302Z,9.57
2018-06-20T03:27:13.218Z,16.07
2018-06-20T03:29:44.884Z,15.07
2018-06-20T03:32:16.176Z,11.93
2018-06-20T03:34:50.091Z,13.07
2018-06-20T03:37:21.426Z,8.77
2018-06-20T03:39:52.680Z,15.40
2018-06-20T03:42:24.813Z,12.17
2018-06-20T03:44:55.128Z,17.10
2018-06-20T03:47:26.123Z,17.23
2018-06-20T03:49:57.130Z,13.73
2018-06-20T03:52:28.146Z,18.47
2018-06-20T03:54:58.458Z,12.77
2018-06-20T03:57:29.574Z,14.23
2018-06-20T04:00:00.851Z,14.03
2018-06-20T04:02:31.921Z,9.57
2018-06-20T04:05:02.999Z,11.97
2018-06-20T04:07:33.918Z,9.43
2018-06-20T04:10:05.453Z,12.53
2018-06-20T04:12:36.379Z,15.70
2018-06-20T04:15:07.080Z,7.73
2018-06-20T04:17:38.659Z,11.83
2018-06-20T04:20:09.853Z,11.80
2018-06-20T04:22:41.097Z,9.13
2018-06-20T04:25:13.092Z,13.37
2018-06-20T04:27:44.515Z,16.83
2018-06-20T04:30:15.141Z,12.73
2018-06-20T04:32:45.909Z,11.10
2018-06-20T04:35:16.759Z,8.80
2018-06-20T04:37:47.513Z,14.53
2018-06-20T04:40:18.203Z,11.67
2018-06-20T04:42:48.343Z,11.80
2018-06-20T04:45:18.920Z,12.77
2018-06-20T04:47:49.730Z,12.10
2018-06-20T04:50:20.498Z,12.60
2018-06-20T04:52:51.301Z,10.47
2018-06-20T04:55:22.032Z,15.57
2018-06-20T04:57:53.099Z,9.60
2018-06-20T05:00:23.962Z,8.33
2018-06-20T05:02:54.862Z,12.50
2018-06-20T05:05:25.581Z,11.20
2018-06-20T05:07:56.733Z,12.40
2018-06-20T05:10:27.953Z,12.80
2018-06-20T05:12:59.116Z,10.47
2018-06-20T05:15:29.887Z,13.37
2018-06-20T05:18:00.289Z,13.17
2018-06-20T05:20:31.401Z,12.70
2018-06-20T05:23:02.232Z,6.53
2018-06-20T05:25:33.067Z,8.77
2018-06-20T05:28:03.822Z,7.90
2018-06-20T05:30:35.333Z,13.30
2018-06-20T05:33:06.467Z,11.43
2018-06-20T05:35:37.627Z,10.20
2018-06-20T05:38:08.692Z,7.50
2018-06-20T05:40:39.873Z,10.17
2018-06-20T05:43:12.275Z,7.13
2018-06-20T05:45:43.309Z,8.10
2018-06-20T05:48:13.628Z,8.43
2018-06-20T05:50:44.541Z,7.43
2018-06-20T05:53:15.545Z,8.67
2018-06-20T05:55:46.499Z,9.10
2018-06-20T05:58:17.505Z,11.80
2018-06-20T06:00:49.441Z,9.00
2018-06-20T06:03:20.513Z,12.20
2018-06-20T06:06:04.059Z,10.37
2018-06-20T06:08:35.114Z,7.47
2018-06-20T06:11:06.129Z,13.23
2018-06-20T06:13:38.674Z,7.47
2018-06-20T06:16:10.613Z,8.43
2018-06-20T06:18:41.715Z,18.17
2018-06-20T06:21:13.786Z,12.83
2018-06-20T06:23:45.815Z,12.47
2018-06-20T06:26:16.807Z,11.50
2018-06-20T06:28:47.964Z,12.77
2018-06-20T06:31:19.336Z,6.53
2018-06-20T06:33:50.344Z,8.63
2018-06-20T06:36:21.392Z,9.90
2018-06-20T06:38:52.391Z,9.37
2018-06-20T06:41:23.376Z,8.97
2018-06-20T06:43:54.439Z,10.20
2018-06-20T06:46:26.077Z,14.57
2018-06-20T06:48:57.137Z,5.27
2018-06-20T06:51:28.226Z,6.30
2018-06-20T06:53:59.208Z,9.73
2018-06-20T06:56:30.303Z,6.07
2018-06-20T06:59:01.330Z,3.90
2018-06-20T07:01:32.345Z,6.73
2018-06-20T07:04:03.253Z,7.63
2018-06-20T07:06:34.366Z,5.27
2018-06-20T07:09:07.346Z,6.27
2018-06-20T07:11:38.453Z,6.97
2018-06-20T07:14:09.674Z,9.57
2018-06-20T07:16:41.150Z,6.40
2018-06-20T07:19:12.175Z,9.03
2018-06-20T07:21:44.214Z,7.00
2018-06-20T07:24:15.568Z,7.00
2018-06-20T07:26:46.625Z,8.23
2018-06-20T07:29:17.638Z,9.30
2018-06-20T07:31:48.692Z,8.20
2018-06-20T07:34:20.405Z,8.30
2018-06-20T07:36:50.673Z,5.23
2018-06-20T07:39:21.543Z,8.70
2018-06-20T07:41:52.507Z,7.50
2018-06-20T07:44:23.571Z,6.03
2018-06-20T07:46:54.574Z,5.43
2018-06-20T07:49:25.715Z,9.03
2018-06-20T07:51:56.784Z,7.63
2018-06-20T07:54:27.711Z,3.70
2018-06-20T07:56:58.885Z,3.60
2018-06-20T07:59:34.905Z,6.73
2018-06-20T08:02:21.057Z,4.70
2018-06-20T08:04:57.093Z,6.60
2018-06-20T08:07:33.015Z,10.07
2018-06-20T08:10:09.114Z,6.13
2018-06-20T08:12:44.939Z,6.70
2018-06-20T08:17:24.268Z,8.53
2018-06-20T08:19:58.811Z,3.80
2018-06-20T08:22:30.252Z,4.50
2018-06-20T08:25:03.526Z,5.03
2018-06-20T08:27:35.931Z,7.13
2018-06-20T08:30:09.068Z,4.90
2018-06-20T08:32:40.099Z,4.43
2018-06-20T08:35:10.369Z,6.43
2018-06-20T08:37:41.204Z,6.70
2018-06-20T08:40:12.831Z,5.90
2018-06-20T08:42:43.879Z,5.33
2018-06-20T08:45:15.218Z,7.53
2018-06-20T08:47:46.419Z,9.33
2018-06-20T08:50:18.022Z,6.10
2018-06-20T08:52:49.373Z,4.33
2018-06-20T08:55:20.978Z,7.17
2018-06-20T08:57:52.263Z,2.67
2018-06-20T09:00:28.276Z,5.10
2018-06-20T09:02:59.964Z,6.57
2018-06-20T09:05:36.161Z,3.13
2018-06-20T09:08:12.177Z,5.70
2018-06-20T09:11:49.675Z,4.80
2018-06-20T09:14:20.972Z,4.33
2018-06-20T09:16:57.522Z,3.17
2018-06-20T09:19:33.297Z,5.60
2018-06-20T09:22:04.380Z,5.23
2018-06-20T09:24:35.320Z,4.77
2018-06-20T09:27:06.432Z,3.57
2018-06-20T09:29:37.460Z,4.77
2018-06-20T09:32:08.700Z,3.53
2018-06-20T09:34:39.091Z,2.47
2018-06-20T09:37:10.032Z,3.87
2018-06-20T09:39:41.033Z,3.40
2018-06-20T09:42:12.094Z,4.73
2018-06-20T09:44:43.193Z,1.40
2018-06-20T09:47:15.154Z,5.57
2018-06-20T09:49:46.204Z,3.57
2018-06-20T09:52:17.207Z,6.13
2018-06-20T09:54:50.312Z,3.00
2018-06-20T09:57:21.331Z,3.00
2018-06-20T09:59:57.274Z,4.33
2018-06-20T10:03:32.274Z,2.63
2018-06-20T10:06:08.240Z,5.27
2018-06-20T10:08:44.433Z,4.20
2018-06-20T10:11:20.488Z,2.63
2018-06-20T10:13:55.955Z,3.67
2018-06-20T10:16:27.068Z,2.13
2018-06-20T10:18:59.884Z,3.87
2018-06-20T10:21:31.257Z,3.40
2018-06-20T10:24:02.256Z,1.90
2018-06-20T10:26:33.401Z,4.07
2018-06-20T10:29:04.744Z,3.00
2018-06-20T10:31:44.627Z,2.53
2018-06-20T10:34:27.011Z,2.80
2018-06-20T10:36:59.112Z,2.53
2018-06-20T10:39:30.146Z,3.17
2018-06-20T10:42:03.465Z,2.97
2018-06-20T10:44:33.763Z,3.20
2018-06-20T10:47:14.666Z,5.17
2018-06-20T10:49:46.761Z,2.63
2018-06-20T10:52:20.562Z,3.90
2018-06-20T10:54:51.619Z,3.83
2018-06-20T10:57:27.377Z,2.37
2018-06-20T11:00:02.536Z,2.67
2018-06-20T11:02:38.232Z,3.30
2018-06-20T11:05:14.418Z,5.77
2018-06-20T11:07:50.562Z,1.77
2018-06-20T11:10:26.365Z,2.37
2018-06-20T11:13:04.300Z,2.93
2018-06-20T11:15:36.537Z,3.33
2018-06-20T11:18:07.648Z,6.50
2018-06-20T11:20:43.559Z,5.40
2018-06-20T11:23:14.900Z,4.83
2018-06-20T11:25:46.248Z,4.50
2018-06-20T11:28:19.038Z,4.13
2018-06-20T11:30:50.135Z,4.53
2018-06-20T11:33:21.763Z,2.43
2018-06-20T11:35:52.725Z,2.80
2018-06-20T11:38:23.808Z,3.40
2018-06-20T11:40:54.100Z,3.30
2018-06-20T11:43:24.973Z,4.27
2018-06-20T11:46:01.005Z,2.63
2018-06-20T11:48:32.029Z,5.07
2018-06-20T11:51:03.119Z,5.90
2018-06-20T11:53:34.119Z,3.47
2018-06-20T11:56:05.228Z,2.60
2018-06-20T11:58:41.189Z,3.30
2018-06-20T12:01:17.129Z,3.23
2018-06-20T12:03:52.942Z,6.30
2018-06-20T12:06:28.900Z,1.80
2018-06-20T12:09:04.833Z,6.17
2018-06-20T12:11:40.849Z,2.53
2018-06-20T12:14:17.012Z,4.30
2018-06-20T12:16:48.635Z,4.70
2018-06-20T12:19:24.658Z,3.67
2018-06-20T12:22:00.735Z,2.97
2018-06-20T12:24:36.797Z,2.63
2018-06-20T12:27:12.573Z,5.70
2018-06-20T12:29:48.669Z,4.30
2018-06-20T12:32:25.476Z,8.87
2018-06-20T12:35:01.204Z,3.80
2018-06-20T12:37:37.056Z,3.47
2018-06-20T12:41:11.947Z,3.27
2018-06-20T12:43:47.782Z,4.27
2018-06-20T12:46:26.832Z,4.70
2018-06-20T12:49:00.311Z,5.33
2018-06-20T12:51:32.238Z,5.57
2018-06-20T12:54:03.369Z,5.03
2018-06-20T12:56:34.454Z,4.03
2018-06-20T12:59:06.507Z,3.93
2018-06-20T13:01:37.896Z,3.77
2018-06-20T13:04:09.117Z,4.13
2018-06-20T13:06:40.089Z,3.87
2018-06-20T13:09:12.912Z,4.20
2018-06-20T13:11:44.134Z,2.77
2018-06-20T13:14:15.120Z,4.57
2018-06-20T13:16:46.305Z,2.93
2018-06-20T13:19:17.233Z,4.93
2018-06-20T13:21:48.439Z,4.77
2018-06-20T13:24:19.448Z,5.90
2018-06-20T13:26:51.771Z,3.77
2018-06-20T13:29:24.104Z,4.57
2018-06-20T13:31:59.946Z,3.97
2018-06-20T13:34:36.240Z,4.77
2018-06-20T13:37:12.533Z,4.93
2018-06-20T13:39:49.421Z,7.07
2018-06-20T13:42:25.364Z,3.87
2018-06-20T13:45:00.714Z,2.50
2018-06-20T13:47:36.411Z,5.33
2018-06-20T13:50:07.502Z,3.73
2018-06-20T13:52:38.719Z,3.50
2018-06-20T13:55:09.539Z,3.47
2018-06-20T13:57:40.690Z,3.93
2018-06-20T14:00:11.815Z,6.80
2018-06-20T14:02:42.883Z,6.00
2018-06-20T14:05:13.813Z,4.47
2018-06-20T14:07:45.488Z,7.23
2018-06-20T14:12:40.013Z,6.70
2018-06-20T14:15:11.121Z,6.07
2018-06-20T14:17:42.301Z,6.50
2018-06-20T14:21:15.466Z,5.63
2018-06-20T14:23:46.370Z,3.10
2018-06-20T14:26:17.202Z,5.03
2018-06-20T14:28:49.233Z,4.37
2018-06-20T14:31:25.029Z,4.70
2018-06-20T14:34:01.098Z,4.30
2018-06-20T14:36:37.187Z,4.23
2018-06-20T14:39:15.036Z,7.43
2018-06-20T14:41:50.673Z,7.03
2018-06-20T14:44:21.429Z,7.17
2018-06-20T14:46:52.216Z,6.37
2018-06-20T14:49:22.996Z,3.73
2018-06-20T14:51:53.909Z,3.67
2018-06-20T14:54:25.202Z,3.37
2018-06-20T14:56:56.012Z,2.77
2018-06-20T14:59:26.808Z,5.07
2018-06-20T15:01:58.067Z,5.57
2018-06-20T15:04:29.278Z,3.90
2018-06-20T15:07:00.921Z,7.63
2018-06-20T15:09:32.160Z,6.30
2018-06-20T15:12:02.981Z,6.70
2018-06-20T15:14:34.753Z,5.30
2018-06-20T15:17:10.843Z,5.77
2018-06-20T15:19:41.896Z,3.67
2018-06-20T15:22:13.231Z,5.73
2018-06-20T15:24:43.982Z,7.80
2018-06-20T15:27:19.666Z,4.87
2018-06-20T15:29:55.558Z,5.33
2018-06-20T15:32:31.990Z,5.13
2018-06-20T15:35:07.649Z,7.20
2018-06-20T15:38:46.253Z,3.57
2018-06-20T15:41:17.328Z,3.93
2018-06-20T15:43:48.305Z,6.30
2018-06-20T15:46:19.106Z,4.70
2018-06-20T15:48:49.270Z,5.90
2018-06-20T15:51:21.042Z,5.00
2018-06-20T15:53:51.920Z,4.50
2018-06-20T15:56:23.279Z,5.87
2018-06-20T15:58:53.666Z,3.60
2018-06-20T16:01:25.259Z,7.70
2018-06-20T16:03:58.068Z,5.57
2018-06-20T16:06:29.155Z,3.07
2018-06-20T16:09:04.440Z,4.10
2018-06-20T16:11:35.177Z,4.77
2018-06-20T16:14:06.042Z,4.17
2018-06-20T16:16:36.909Z,7.00
2018-06-20T16:19:12.807Z,6.83
2018-06-20T16:21:50.163Z,3.77
2018-06-20T16:24:25.879Z,5.83
2018-06-20T16:27:01.568Z,4.73
2018-06-20T16:29:37.466Z,4.87
2018-06-20T16:32:08.554Z,6.33
2018-06-20T16:34:39.489Z,6.63
2018-06-20T16:37:10.377Z,8.30
2018-06-20T16:39:41.168Z,9.97
2018-06-20T16:42:12.019Z,7.60
2018-06-20T16:44:42.775Z,15.00
2018-06-20T16:47:13.631Z,12.53
2018-06-20T16:49:44.477Z,13.50
2018-06-20T16:52:15.272Z,14.47
2018-06-20T16:54:46.479Z,17.03
2018-06-20T16:57:17.278Z,11.00
2018-06-20T16:59:48.320Z,10.67
2018-06-20T17:02:24.396Z,10.20
2018-06-20T17:04:55.983Z,11.50
2018-06-20T17:07:26.169Z,11.67
2018-06-20T17:09:57.007Z,11.57
2018-06-20T17:12:32.994Z,10.77
2018-06-20T17:15:09.104Z,10.07
2018-06-20T17:17:44.838Z,8.97
2018-06-20T17:20:20.592Z,12.33
2018-06-20T17:22:56.606Z,11.07
2018-06-20T17:25:30.045Z,10.13
2018-06-20T17:28:00.822Z,9.37
2018-06-20T17:30:31.834Z,7.53
2018-06-20T17:33:02.795Z,7.67
2018-06-20T17:35:33.692Z,7.23
2018-06-20T17:38:04.689Z,7.07
2018-06-20T17:40:35.611Z,7.53
2018-06-20T17:43:06.511Z,7.23
2018-06-20T17:45:37.332Z,8.17
2018-06-20T17:48:08.180Z,6.03
2018-06-20T17:50:39.076Z,7.70
2018-06-20T17:53:12.712Z,6.60
2018-06-20T17:55:42.908Z,9.20
2018-06-20T17:58:13.653Z,4.60
2018-06-20T18:00:49.477Z,4.60
2018-06-20T18:03:20.477Z,4.00
2018-06-20T18:05:56.861Z,3.80
2018-06-20T18:08:33.400Z,4.80
2018-06-20T18:11:09.528Z,4.23
2018-06-20T18:13:45.675Z,4.33
2018-06-20T18:16:22.188Z,3.73
2018-06-20T18:18:53.341Z,3.83
2018-06-20T18:21:24.414Z,3.00
2018-06-20T18:23:55.475Z,2.10
2018-06-20T18:26:26.264Z,3.67
2018-06-20T18:28:57.156Z,2.67
2018-06-20T18:31:29.283Z,2.37
2018-06-20T18:34:00.109Z,2.37
2018-06-20T18:36:31.051Z,1.80
2018-06-20T18:39:01.240Z,4.43
2018-06-20T18:41:31.964Z,2.77
2018-06-20T18:44:03.165Z,2.50
2018-06-20T18:46:34.013Z,1.60
2018-06-20T18:49:05.314Z,1.97
2018-06-20T18:51:36.170Z,1.83
2018-06-20T18:54:07.247Z,2.57
2018-06-20T18:56:38.496Z,1.50
2018-06-20T18:59:14.054Z,1.57
2018-06-20T19:01:49.675Z,1.50
2018-06-20T19:04:25.417Z,1.70
2018-06-20T19:07:01.672Z,4.00
2018-06-20T19:09:37.814Z,1.20
2018-06-20T19:12:08.671Z,1.30
2018-06-20T19:14:39.973Z,1.20
2018-06-20T19:17:11.435Z,2.23
2018-06-20T19:19:42.388Z,1.57
2018-06-20T19:22:13.263Z,1.47
2018-06-20T19:24:44.519Z,1.50
2018-06-20T19:27:15.401Z,2.00
2018-06-20T19:29:46.631Z,2.00
2018-06-20T19:32:17.530Z,1.43
2018-06-20T19:34:48.608Z,1.20
2018-06-20T19:37:19.521Z,2.20
2018-06-20T19:39:53.625Z,1.30
2018-06-20T19:42:25.920Z,1.40
2018-06-20T19:44:56.702Z,1.30
2018-06-20T19:47:27.470Z,1.30
2018-06-20T19:49:58.237Z,1.40
2018-06-20T19:52:31.095Z,2.63
2018-06-20T19:55:01.423Z,2.20
2018-06-20T19:57:32.149Z,1.47
2018-06-20T20:00:04.226Z,1.30
2018-06-20T20:02:35.110Z,1.90
2018-06-20T20:05:05.985Z,1.30
2018-06-20T20:07:37.060Z,1.40
2018-06-20T20:10:07.761Z,1.40
2018-06-20T20:12:38.738Z,1.47
2018-06-20T20:15:09.720Z,1.87
2018-06-20T20:17:40.853Z,1.77
2018-06-20T20:20:11.768Z,1.37
2018-06-20T20:22:43.359Z,1.57
2018-06-20T20:25:14.987Z,1.60
2018-06-20T20:27:46.547Z,2.03
2018-06-20T20:30:17.715Z,1.40
2018-06-20T20:32:48.710Z,2.10
2018-06-20T20:35:20.231Z,1.97
2018-06-20T20:37:52.495Z,1.47
2018-06-20T20:40:23.887Z,1.50
2018-06-20T20:42:55.878Z,2.27
2018-06-20T20:45:27.992Z,1.60
2018-06-20T20:47:58.959Z,1.60
2018-06-20T20:50:29.947Z,1.63
2018-06-20T20:53:02.540Z,1.60
2018-06-20T20:55:34.160Z,2.43
2018-06-20T20:58:06.048Z,1.77
2018-06-20T21:00:37.243Z,2.07
2018-06-20T21:03:08.287Z,2.00
2018-06-20T21:05:39.257Z,2.13
2018-06-20T21:08:10.260Z,2.17
2018-06-20T21:10:41.328Z,2.83
2018-06-20T21:13:12.834Z,1.80
2018-06-20T21:15:44.028Z,2.43
2018-06-20T21:18:15.003Z,1.90
2018-06-20T21:20:46.024Z,2.33
2018-06-20T21:23:17.013Z,2.40
2018-06-20T21:25:48.124Z,1.70
2018-06-20T21:28:20.703Z,3.10
2018-06-20T21:30:51.636Z,2.33
2018-06-20T21:33:22.626Z,1.80
2018-06-20T21:35:55.202Z,2.10
2018-06-20T21:38:26.459Z,1.50
2018-06-20T21:40:57.566Z,1.80
2018-06-20T21:43:29.061Z,1.80
2018-06-20T21:46:00.916Z,1.60
2018-06-20T21:48:31.504Z,2.63
2018-06-20T21:51:03.761Z,1.70
2018-06-20T21:53:35.013Z,2.10
2018-06-20T21:56:06.945Z,2.20
2018-06-20T21:58:37.967Z,2.33
2018-06-20T22:01:09.094Z,3.10
2018-06-20T22:03:40.872Z,1.67
2018-06-20T22:06:12.198Z,2.97
2018-06-20T22:08:43.183Z,1.87
2018-06-20T22:11:14.364Z,2.87
2018-06-20T22:13:45.307Z,2.50
2018-06-20T22:16:16.187Z,1.50
2018-06-20T22:18:47.187Z,2.20
2018-06-20T22:21:18.146Z,1.93
2018-06-20T22:23:49.103Z,2.23
2018-06-20T22:26:19.982Z,2.53
2018-06-20T22:28:51.276Z,3.10
2018-06-20T22:31:22.167Z,2.23
2018-06-20T22:33:52.420Z,1.83
2018-06-20T22:36:23.790Z,1.83
2018-06-20T22:38:55.483Z,1.93
2018-06-20T22:41:26.874Z,2.73
2018-06-20T22:43:57.832Z,3.33
2018-06-20T22:46:28.826Z,2.73
2018-06-20T22:48:59.777Z,2.90
2018-06-20T22:51:30.758Z,3.60
2018-06-20T22:54:01.727Z,2.10
2018-06-20T22:56:32.773Z,2.07
2018-06-20T22:59:04.409Z,1.80
2018-06-20T23:01:36.212Z,1.50
2018-06-20T23:04:07.073Z,1.60
2018-06-20T23:06:37.969Z,1.90
2018-06-20T23:09:09.322Z,1.20
2018-06-20T23:11:45.057Z,1.70
2018-06-20T23:14:15.990Z,1.53
2018-06-20T23:16:46.906Z,2.60
2018-06-20T23:19:17.877Z,1.60
2018-06-20T23:21:48.885Z,3.77
2018-06-20T23:24:19.104Z,3.87
2018-06-20T23:26:50.378Z,1.80
2018-06-20T23:29:21.383Z,1.53
2018-06-20T23:31:52.283Z,1.87
2018-06-20T23:34:23.242Z,3.40
2018-06-20T23:36:54.227Z,2.10
2018-06-20T23:39:24.551Z,1.60
2018-06-20T23:41:55.975Z,1.70
2018-06-20T23:44:26.891Z,1.87
2018-06-20T23:46:57.854Z,1.70
2018-06-20T23:49:30.077Z,1.80
2018-06-20T23:52:01.643Z,2.10
2018-06-20T23:54:32.599Z,1.43
2018-06-20T23:57:03.661Z,1.50
2018-06-20T23:59:35.462Z,1.77
